createdAt,value
2022-09-13T00:00:12.583Z,100495.13
2022-09-13T00:02:40.365Z,100481.81
2022-09-13T00:05:08.937Z,100485.44
2022-09-13T00:07:36.715Z,100486.31
2022-09-13T00:10:05.492Z,100473.88
2022-09-13T00:12:33.256Z,100482.00
2022-09-13T00:15:02.388Z,100474.75
2022-09-13T00:17:30.389Z,100478.22
2022-09-13T00:19:58.207Z,100484.41
2022-09-13T00:22:25.969Z,100480.72
2022-09-13T00:24:53.723Z,100479.81
2022-09-13T00:27:22.003Z,100484.22
2022-09-13T00:29:49.717Z,100469.09
2022-09-13T00:32:19.161Z,100479.81
2022-09-13T00:34:46.883Z,100472.72
2022-09-13T00:37:14.777Z,100462.91
2022-09-13T00:39:44.917Z,100467.34
2022-09-13T00:42:15.501Z,100459.41
2022-09-13T00:44:57.444Z,100461.25
2022-09-13T00:47:34.421Z,100448.97
2022-09-13T00:50:08.544Z,100451.75
2022-09-13T00:52:41.876Z,100450.06
2022-09-13T00:55:16.384Z,100442.16
2022-09-13T00:57:44.840Z,100433.28
2022-09-13T01:00:14.757Z,100434.16
2022-09-13T01:02:47.473Z,100435.13
2022-09-13T01:05:16.293Z,100432.44
2022-09-13T01:07:46.327Z,100427.84
2022-09-13T01:10:14.122Z,100432.44
2022-09-13T01:12:46.899Z,100419.06
2022-09-13T01:15:14.933Z,100427.09
2022-09-13T01:17:45.457Z,100418.25
2022-09-13T01:20:14.561Z,100414.31
2022-09-13T01:23:26.551Z,100403.34
2022-09-13T01:26:35.266Z,100400.41
2022-09-13T01:29:36.060Z,100394.94
2022-09-13T01:32:16.669Z,100392.00
2022-09-13T01:34:56.292Z,100391.84
2022-09-13T01:37:50.867Z,100387.22
2022-09-13T01:40:32.982Z,100381.78
2022-09-13T01:43:17.163Z,100381.69
2022-09-13T01:45:54.769Z,100371.84
2022-09-13T01:48:30.125Z,100373.56
2022-09-13T01:51:05.621Z,100371.78
2022-09-13T01:53:41.936Z,100366.34
2022-09-13T01:56:19.194Z,100366.25
2022-09-13T01:58:55.689Z,100373.34
2022-09-13T02:01:30.017Z,100367.13
2022-09-13T02:04:04.589Z,100368.78
2022-09-13T02:06:37.819Z,100368.69
2022-09-13T02:09:11.254Z,100365.84
2022-09-13T02:11:43.036Z,100359.47
2022-09-13T02:14:16.265Z,100370.00
2022-09-13T02:16:48.930Z,100365.34
2022-09-13T02:19:22.815Z,100370.53
2022-09-13T02:21:55.646Z,100365.19
2022-09-13T02:24:29.262Z,100372.09
2022-09-13T02:27:00.762Z,100371.97
2022-09-13T02:29:31.216Z,100382.41
2022-09-13T02:32:05.037Z,100384.25
2022-09-13T02:34:39.334Z,100376.88
2022-09-13T02:37:10.078Z,100382.16
2022-09-13T02:39:41.843Z,100386.47
2022-09-13T02:42:16.312Z,100396.25
2022-09-13T02:44:47.017Z,100395.22
2022-09-13T02:47:27.699Z,100402.47
2022-09-13T02:50:15.123Z,100407.22
2022-09-13T02:52:51.258Z,100412.03
2022-09-13T02:55:25.875Z,100402.50
2022-09-13T02:58:04.016Z,100397.47
2022-09-13T03:00:32.372Z,100401.44
2022-09-13T03:03:05.457Z,100406.94
2022-09-13T03:05:34.766Z,100400.03
2022-09-13T03:08:03.878Z,100407.25
2022-09-13T03:10:39.035Z,100410.88
2022-09-13T03:13:19.685Z,100402.00
2022-09-13T03:16:00.456Z,100389.53
2022-09-13T03:18:42.871Z,100387.75
2022-09-13T03:21:27.994Z,100382.41
2022-09-13T03:24:07.240Z,100381.53
2022-09-13T03:26:43.568Z,100376.34
2022-09-13T03:29:22.878Z,100370.53
2022-09-13T03:31:55.213Z,100376.59
2022-09-13T03:34:32.203Z,100372.94
2022-09-13T03:37:09.283Z,100369.25
2022-09-13T03:39:43.420Z,100376.41
2022-09-13T03:42:19.797Z,100370.91
2022-09-13T03:44:51.089Z,100363.81
2022-09-13T03:47:20.498Z,100363.81
2022-09-13T03:49:51.972Z,100361.94
2022-09-13T03:52:30.200Z,100358.16
2022-09-13T03:54:59.432Z,100350.97
2022-09-13T03:57:27.262Z,100354.47
2022-09-13T03:59:56.442Z,100356.16
2022-09-13T04:02:26.158Z,100357.91
2022-09-13T04:04:53.991Z,100349.03
2022-09-13T04:07:25.429Z,100336.50
2022-09-13T04:09:54.555Z,100344.44
2022-09-13T04:12:23.008Z,100344.44
2022-09-13T04:14:50.771Z,100347.03
2022-09-13T04:17:18.548Z,100354.13
2022-09-13T04:19:47.038Z,100346.19
2022-09-13T04:22:15.085Z,100349.69
2022-09-13T04:24:44.311Z,100334.63
2022-09-13T04:27:14.117Z,100339.88
2022-09-13T04:29:42.112Z,100340.66
2022-09-13T04:32:10.992Z,100347.75
2022-09-13T04:34:38.721Z,100356.69
2022-09-13T04:37:06.426Z,100343.25
2022-09-13T04:39:34.204Z,100344.88
2022-09-13T04:42:02.375Z,100336.00
2022-09-13T04:44:31.653Z,100331.69
2022-09-13T04:47:00.163Z,100339.97
2022-09-13T04:49:27.896Z,100337.22
2022-09-13T04:51:55.656Z,100339.78
2022-09-13T04:54:23.354Z,100347.75
2022-09-13T04:56:51.111Z,100352.91
2022-09-13T04:59:18.807Z,100346.63
2022-09-13T05:01:48.073Z,100347.41
2022-09-13T05:04:15.912Z,100354.56
2022-09-13T05:06:43.679Z,100362.50
2022-09-13T05:09:14.468Z,100354.47
2022-09-13T05:11:42.749Z,100357.97
2022-09-13T05:14:11.972Z,100360.38
2022-09-13T05:16:40.025Z,100361.09
2022-09-13T05:19:10.371Z,100358.22
2022-09-13T05:21:38.260Z,100362.47
2022-09-13T05:24:06.205Z,100360.72
2022-09-13T05:26:34.002Z,100362.47
2022-09-13T05:29:02.012Z,100364.22
2022-09-13T05:31:32.244Z,100362.31
2022-09-13T05:34:01.732Z,100363.19
2022-09-13T05:36:30.963Z,100360.41
2022-09-13T05:39:19.176Z,100368.41
2022-09-13T05:41:46.917Z,100369.25
2022-09-13T05:44:15.021Z,100375.41
2022-09-13T05:46:43.381Z,100367.47
2022-09-13T05:49:13.589Z,100369.09
2022-09-13T05:51:42.834Z,100359.16
2022-09-13T05:54:13.201Z,100353.72
2022-09-13T05:56:41.063Z,100357.19
2022-09-13T05:59:12.542Z,100353.38
2022-09-13T06:01:40.362Z,100356.75
2022-09-13T06:04:08.213Z,100355.81
2022-09-13T06:06:36.278Z,100354.88
2022-09-13T06:09:06.609Z,100355.81
2022-09-13T06:11:34.383Z,100353.81
2022-09-13T06:14:02.218Z,100357.97
2022-09-13T06:16:30.007Z,100351.31
2022-09-13T06:18:59.242Z,100336.63
2022-09-13T06:21:29.308Z,100341.72
2022-09-13T06:23:57.664Z,100349.41
2022-09-13T06:26:28.340Z,100341.28
2022-09-13T06:28:58.095Z,100337.66
2022-09-13T06:31:27.972Z,100331.16
2022-09-13T06:34:02.278Z,100328.06
2022-09-13T06:36:30.063Z,100329.84
2022-09-13T06:39:00.402Z,100329.09
2022-09-13T06:41:29.643Z,100329.09
2022-09-13T06:43:58.871Z,100335.91
2022-09-13T06:46:27.709Z,100339.91
2022-09-13T06:48:57.764Z,100329.16
2022-09-13T06:51:26.343Z,100343.00
2022-09-13T06:53:56.535Z,100332.53
2022-09-13T06:56:25.725Z,100333.59
2022-09-13T06:58:57.840Z,100328.66
2022-09-13T07:01:28.436Z,100328.50
2022-09-13T07:03:59.255Z,100336.38
2022-09-13T07:06:29.410Z,100331.00
2022-09-13T07:08:58.419Z,100336.16
2022-09-13T07:11:28.433Z,100339.63
2022-09-13T07:13:59.650Z,100337.81
2022-09-13T07:16:29.378Z,100337.34
2022-09-13T07:18:59.087Z,100350.09
2022-09-13T07:21:28.220Z,100345.97
2022-09-13T07:23:57.037Z,100351.72
2022-09-13T07:26:27.340Z,100359.63
2022-09-13T07:28:58.094Z,100348.41
2022-09-13T07:31:28.829Z,100361.91
2022-09-13T07:33:58.206Z,100363.59
2022-09-13T07:36:27.071Z,100365.72
2022-09-13T07:38:55.244Z,100358.44
2022-09-13T07:41:24.742Z,100361.91
2022-09-13T07:43:53.414Z,100360.75
2022-09-13T07:46:24.735Z,100362.13
2022-09-13T07:48:54.352Z,100367.69
2022-09-13T07:51:23.699Z,100369.72
2022-09-13T07:53:57.032Z,100379.00
2022-09-13T07:56:26.809Z,100376.72
2022-09-13T07:58:55.926Z,100373.38
2022-09-13T08:01:26.634Z,100369.63
2022-09-13T08:03:56.141Z,100373.91
2022-09-13T08:06:24.911Z,100368.25
2022-09-13T08:08:52.985Z,100368.94
2022-09-13T08:11:22.948Z,100375.03
2022-09-13T08:13:51.729Z,100367.91
2022-09-13T08:16:20.962Z,100377.75
2022-09-13T08:18:51.721Z,100383.94
2022-09-13T08:21:19.881Z,100386.56
2022-09-13T08:23:48.122Z,100382.19
2022-09-13T08:26:16.038Z,100380.34
2022-09-13T08:28:44.313Z,100386.97
2022-09-13T08:31:15.315Z,100388.31
2022-09-13T08:33:46.666Z,100389.75
2022-09-13T08:36:17.898Z,100387.81
2022-09-13T08:38:49.457Z,100393.97
2022-09-13T08:41:40.824Z,100392.03
2022-09-13T08:44:14.801Z,100398.03
2022-09-13T08:46:46.850Z,100390.78
2022-09-13T08:49:20.870Z,100378.69
2022-09-13T08:51:54.071Z,100376.75
2022-09-13T08:54:21.980Z,100375.44
2022-09-13T08:56:56.782Z,100378.84
2022-09-13T08:59:46.404Z,100384.44
2022-09-13T09:02:31.982Z,100379.72
2022-09-13T09:05:05.686Z,100381.22
2022-09-13T09:07:41.185Z,100381.09
2022-09-13T09:10:16.748Z,100376.47
2022-09-13T09:12:48.496Z,100381.34
2022-09-13T09:15:18.963Z,100381.91
2022-09-13T09:17:55.516Z,100378.38
2022-09-13T09:20:32.216Z,100385.91
2022-09-13T09:23:07.426Z,100374.72
2022-09-13T09:25:35.803Z,100388.22
2022-09-13T09:28:12.943Z,100398.78
2022-09-13T09:30:47.229Z,100388.72
2022-09-13T09:33:32.076Z,100382.06
2022-09-13T09:36:04.419Z,100379.13
2022-09-13T09:38:41.942Z,100377.44
2022-09-13T09:41:16.413Z,100376.66
2022-09-13T09:43:52.543Z,100377.22
2022-09-13T09:46:27.533Z,100383.81
2022-09-13T09:48:58.655Z,100377.56
2022-09-13T09:51:29.132Z,100384.19
2022-09-13T09:54:05.211Z,100375.59
2022-09-13T09:56:34.856Z,100366.88
2022-09-13T09:59:03.458Z,100374.53
2022-09-13T10:01:33.514Z,100367.66
2022-09-13T10:04:09.533Z,100370.84
2022-09-13T10:06:39.374Z,100367.75
2022-09-13T10:09:17.868Z,100361.22
2022-09-13T10:11:48.958Z,100360.09
2022-09-13T10:14:33.125Z,100361.03
2022-09-13T10:17:16.731Z,100355.88
2022-09-13T10:19:55.136Z,100362.25
2022-09-13T10:22:23.540Z,100359.03
2022-09-13T10:24:53.579Z,100365.09
2022-09-13T10:27:30.429Z,100356.19
2022-09-13T10:30:02.239Z,100363.88
2022-09-13T10:32:31.592Z,100364.09
2022-09-13T10:35:04.134Z,100365.03
2022-09-13T10:37:34.607Z,100370.44
2022-09-13T10:40:09.531Z,100362.84
2022-09-13T10:42:37.636Z,100367.13
2022-09-13T10:45:07.677Z,100363.09
2022-09-13T10:47:40.510Z,100360.09
2022-09-13T10:50:21.655Z,100354.06
2022-09-13T10:52:50.989Z,100362.97
2022-09-13T10:55:28.971Z,100374.22
2022-09-13T10:58:15.421Z,100367.56
2022-09-13T11:01:05.301Z,100379.28
2022-09-13T11:03:52.972Z,100374.66
2022-09-13T11:06:29.706Z,100378.16
2022-09-13T11:09:05.362Z,100375.38
2022-09-13T11:11:43.111Z,100381.41
2022-09-13T11:14:26.559Z,100367.41
2022-09-13T11:17:05.966Z,100369.47
2022-09-13T11:20:06.308Z,100366.34
2022-09-13T11:23:00.037Z,100357.28
2022-09-13T11:25:40.040Z,100362.03
2022-09-13T11:28:22.116Z,100360.75
2022-09-13T11:31:06.161Z,100357.53
2022-09-13T11:33:47.041Z,100352.34
2022-09-13T11:36:39.614Z,100354.91
2022-09-13T11:39:17.190Z,100349.75
2022-09-13T11:42:00.732Z,100356.97
2022-09-13T11:44:49.353Z,100349.97
2022-09-13T11:47:25.538Z,100355.56
2022-09-13T11:50:04.342Z,100359.44
2022-09-13T11:52:48.150Z,100354.59
2022-09-13T11:55:20.111Z,100360.50
2022-09-13T11:57:52.674Z,100359.63
2022-09-13T12:00:24.145Z,100367.72
2022-09-13T12:03:01.147Z,100362.97
2022-09-13T12:05:33.044Z,100361.25
2022-09-13T12:08:07.720Z,100371.03
2022-09-13T12:10:40.091Z,100368.16
2022-09-13T12:13:15.176Z,100368.50
2022-09-13T12:15:47.654Z,100358.34
2022-09-13T12:18:20.436Z,100355.75
2022-09-13T12:20:51.606Z,100356.44
2022-09-13T12:23:25.259Z,100345.47
2022-09-13T12:25:58.726Z,100352.00
2022-09-13T12:28:30.794Z,100352.34
2022-09-13T12:31:05.457Z,100351.06
2022-09-13T12:33:33.233Z,100354.72
2022-09-13T12:36:36.605Z,100359.41
2022-09-13T12:39:29.186Z,100358.19
2022-09-13T12:42:18.120Z,100358.91
2022-09-13T12:45:03.940Z,100351.69
2022-09-13T12:47:48.995Z,100350.59
2022-09-13T12:50:44.492Z,100343.59
2022-09-13T12:53:37.874Z,100351.63
2022-09-13T12:56:26.004Z,100349.91
2022-09-13T12:59:21.111Z,100347.47
2022-09-13T13:01:52.131Z,100350.50
2022-09-13T13:04:24.909Z,100353.59
2022-09-13T13:06:55.445Z,100346.28
2022-09-13T13:09:31.007Z,100336.91
2022-09-13T13:11:59.666Z,100334.09
2022-09-13T13:14:45.155Z,100333.19
2022-09-13T13:17:39.613Z,100339.72
2022-09-13T13:20:45.973Z,100328.59
2022-09-13T13:23:24.586Z,100323.81
2022-09-13T13:26:08.590Z,100321.66
2022-09-13T13:29:16.639Z,100324.28
2022-09-13T13:31:47.161Z,100323.16
2022-09-13T13:34:31.579Z,100324.22
2022-09-13T13:37:04.219Z,100320.84
2022-09-13T13:39:40.957Z,100330.88
2022-09-13T13:42:14.708Z,100330.88
2022-09-13T13:45:18.537Z,100333.34
2022-09-13T13:48:15.236Z,100324.72
2022-09-13T13:51:16.041Z,100324.69
2022-09-13T13:53:49.841Z,100320.47
2022-09-13T13:56:23.895Z,100315.81
2022-09-13T13:58:55.757Z,100317.97
2022-09-13T14:01:27.240Z,100312.47
2022-09-13T14:04:38.961Z,100308.94
2022-09-13T14:07:19.773Z,100293.47
2022-09-13T14:09:54.889Z,100301.41
2022-09-13T14:12:36.020Z,100292.66
2022-09-13T14:15:31.839Z,100293.13
2022-09-13T14:18:46.116Z,100298.34
2022-09-13T14:21:26.638Z,100299.56
2022-09-13T14:24:10.653Z,100299.63
2022-09-13T14:26:41.111Z,100299.09
2022-09-13T14:29:09.796Z,100301.22
2022-09-13T14:31:39.026Z,100302.97
2022-09-13T14:34:06.801Z,100303.72
2022-09-13T14:36:36.108Z,100297.59
2022-09-13T14:39:03.839Z,100297.06
2022-09-13T14:41:34.119Z,100284.31
2022-09-13T14:44:28.338Z,100280.41
2022-09-13T14:47:06.186Z,100286.13
2022-09-13T14:49:39.902Z,100285.25
2022-09-13T14:52:12.002Z,100284.50
2022-09-13T14:54:43.209Z,100281.06
2022-09-13T14:57:21.581Z,100278.22
2022-09-13T14:59:53.038Z,100272.00
2022-09-13T15:02:22.787Z,100286.38
2022-09-13T15:04:52.921Z,100279.78
2022-09-13T15:07:28.459Z,100275.22
2022-09-13T15:10:07.217Z,100278.06
2022-09-13T15:12:36.002Z,100284.94
2022-09-13T15:15:36.397Z,100276.28
2022-09-13T15:18:07.516Z,100275.41
2022-09-13T15:20:50.746Z,100283.69
2022-09-13T15:23:21.697Z,100289.16
2022-09-13T15:25:54.841Z,100272.84
2022-09-13T15:28:25.688Z,100276.47
2022-09-13T15:30:56.785Z,100278.81
2022-09-13T15:33:27.911Z,100276.22
2022-09-13T15:36:14.348Z,100279.91
2022-09-13T15:38:59.593Z,100273.06
2022-09-13T15:41:31.722Z,100277.03
2022-09-13T15:44:00.472Z,100276.81
2022-09-13T15:46:30.186Z,100275.72
2022-09-13T15:49:01.254Z,100277.81
2022-09-13T15:51:30.064Z,100275.16
2022-09-13T15:53:59.043Z,100270.50
2022-09-13T15:56:32.962Z,100270.22
2022-09-13T15:59:00.666Z,100274.66
2022-09-13T16:01:29.891Z,100268.16
2022-09-13T16:03:57.688Z,100280.69
2022-09-13T16:06:25.442Z,100282.22
2022-09-13T16:08:53.232Z,100290.63
2022-09-13T16:11:20.920Z,100280.94
2022-09-13T16:13:48.751Z,100280.47
2022-09-13T16:16:16.638Z,100276.38
2022-09-13T16:18:46.168Z,100274.19
2022-09-13T16:21:14.020Z,100268.75
2022-09-13T16:23:41.930Z,100270.84
2022-09-13T16:26:09.696Z,100270.59
2022-09-13T16:28:37.459Z,100274.38
2022-09-13T16:31:05.367Z,100277.06
2022-09-13T16:33:33.177Z,100281.16
2022-09-13T16:36:02.710Z,100270.34
2022-09-13T16:38:30.414Z,100274.63
2022-09-13T16:40:58.155Z,100263.66
2022-09-13T16:43:25.856Z,100268.69
2022-09-13T16:45:53.524Z,100266.16
2022-09-13T16:48:21.298Z,100266.38
2022-09-13T16:50:49.064Z,100267.22
2022-09-13T16:53:18.156Z,100262.03
2022-09-13T16:55:46.156Z,100262.09
2022-09-13T16:58:13.904Z,100266.09
2022-09-13T17:00:44.282Z,100272.28
2022-09-13T17:03:12.283Z,100269.34
2022-09-13T17:05:40.599Z,100273.28
2022-09-13T17:08:08.337Z,100269.03
2022-09-13T17:10:39.834Z,100271.91
2022-09-13T17:13:07.709Z,100273.78
2022-09-13T17:15:39.804Z,100281.91
2022-09-13T17:18:07.657Z,100272.59
2022-09-13T17:20:35.587Z,100281.44
2022-09-13T17:23:03.329Z,100270.47
2022-09-13T17:25:31.754Z,100272.84
2022-09-13T17:28:00.876Z,100284.28
2022-09-13T17:30:28.874Z,100283.94
2022-09-13T17:32:56.605Z,100287.28
2022-09-13T17:35:24.333Z,100287.78
2022-09-13T17:37:52.089Z,100294.47
2022-09-13T17:40:20.094Z,100293.28
2022-09-13T17:42:48.929Z,100299.03
2022-09-13T17:45:18.228Z,100288.81
2022-09-13T17:47:46.052Z,100294.78
2022-09-13T17:50:13.837Z,100294.25
2022-09-13T17:52:41.914Z,100290.47
2022-09-13T17:55:10.365Z,100290.22
2022-09-13T17:57:38.080Z,100291.47
2022-09-13T18:00:08.688Z,100299.19
2022-09-13T18:02:37.824Z,100302.25
2022-09-13T18:05:09.520Z,100304.56
2022-09-13T18:07:39.577Z,100302.19
2022-09-13T18:10:20.110Z,100302.47
2022-09-13T18:12:55.432Z,100298.47
2022-09-13T18:15:24.411Z,100298.69
2022-09-13T18:17:53.502Z,100293.66
2022-09-13T18:20:21.770Z,100301.16
2022-09-13T18:22:49.506Z,100305.84
2022-09-13T18:25:17.650Z,100308.84
2022-09-13T18:27:45.646Z,100307.47
2022-09-13T18:30:13.747Z,100310.34
2022-09-13T18:32:41.577Z,100316.13
2022-09-13T18:35:10.941Z,100320.06
2022-09-13T18:37:38.682Z,100316.88
2022-09-13T18:40:13.835Z,100318.88
2022-09-13T18:42:45.040Z,100317.53
2022-09-13T18:45:13.164Z,100325.88
2022-09-13T18:47:40.873Z,100319.72
2022-09-13T18:50:11.746Z,100330.75
2022-09-13T18:52:40.452Z,100330.06
2022-09-13T18:55:08.691Z,100335.81
2022-09-13T18:57:36.389Z,100332.53
2022-09-13T19:00:05.630Z,100342.75
2022-09-13T19:02:33.616Z,100349.31
2022-09-13T19:05:05.296Z,100344.81
2022-09-13T19:07:36.046Z,100352.78
2022-09-13T19:10:03.891Z,100345.84
2022-09-13T19:12:31.645Z,100356.59
2022-09-13T19:14:59.468Z,100347.97
2022-09-13T19:17:27.203Z,100358.00
2022-09-13T19:19:55.527Z,100355.75
2022-09-13T19:22:23.266Z,100358.72
2022-09-13T19:24:54.853Z,100364.16
2022-09-13T19:27:22.837Z,100349.13
2022-09-13T19:29:50.934Z,100356.47
2022-09-13T19:32:18.716Z,100352.16
2022-09-13T19:34:46.549Z,100363.03
2022-09-13T19:37:14.343Z,100354.34
2022-09-13T19:39:42.301Z,100366.84
2022-09-13T19:42:11.635Z,100364.44
2022-09-13T19:44:39.626Z,100359.28
2022-09-13T19:47:53.221Z,100363.06
2022-09-13T19:49:55.319Z,100367.81
2022-09-13T19:52:23.285Z,100367.13
2022-09-13T19:54:52.094Z,100356.69
2022-09-13T19:57:21.271Z,100365.84
2022-09-13T19:59:49.336Z,100364.09
2022-09-13T20:02:17.194Z,100365.22
2022-09-13T20:04:47.642Z,100351.16
2022-09-13T20:07:15.473Z,100353.22
2022-09-13T20:09:46.878Z,100353.47
2022-09-13T20:12:15.234Z,100348.19
2022-09-13T20:14:44.437Z,100354.59
2022-09-13T20:17:12.253Z,100359.41
2022-09-13T20:19:43.518Z,100355.06
2022-09-13T20:22:14.314Z,100354.34
2022-09-13T20:24:42.159Z,100359.97
2022-09-13T20:27:10.044Z,100360.91
2022-09-13T20:29:37.862Z,100358.31
2022-09-13T20:32:06.981Z,100362.81
2022-09-13T20:34:35.142Z,100359.34
2022-09-13T20:37:02.938Z,100369.28
2022-09-13T20:39:30.705Z,100362.38
2022-09-13T20:41:58.992Z,100361.56
2022-09-13T20:44:26.866Z,100360.84
2022-09-13T20:46:54.569Z,100361.38
2022-09-13T20:49:23.640Z,100354.63
2022-09-13T20:51:52.091Z,100354.84
2022-09-13T20:54:19.837Z,100354.22
2022-09-13T20:56:47.675Z,100353.53
2022-09-13T20:59:15.808Z,100362.66
2022-09-13T21:01:43.862Z,100358.34
2022-09-13T21:04:11.773Z,100363.84
2022-09-13T21:07:03.601Z,100357.78
2022-09-13T21:09:32.444Z,100352.69
2022-09-13T21:12:01.205Z,100358.13
2022-09-13T21:14:33.879Z,100361.91
2022-09-13T21:17:06.250Z,100355.81
2022-09-13T21:19:34.141Z,100367.53
2022-09-13T21:22:03.997Z,100370.28
2022-09-13T21:24:32.182Z,100360.69
2022-09-13T21:26:59.929Z,100360.94
2022-09-13T21:29:27.680Z,100371.69
2022-09-13T21:31:56.729Z,100371.78
2022-09-13T21:34:27.208Z,100369.34
2022-09-13T21:36:55.414Z,100363.28
2022-09-13T21:39:24.737Z,100364.28
2022-09-13T21:41:52.578Z,100363.41
2022-09-13T21:44:20.270Z,100363.41
2022-09-13T21:46:48.028Z,100359.94
2022-09-13T21:49:15.792Z,100359.22
2022-09-13T21:51:45.345Z,100354.91
2022-09-13T21:54:15.590Z,100357.66
2022-09-13T21:56:50.796Z,100354.19
2022-09-13T21:59:20.530Z,100360.66
2022-09-13T22:01:50.345Z,100360.78
2022-09-13T22:04:20.035Z,100360.16
2022-09-13T22:06:51.447Z,100358.41
2022-09-13T22:09:19.626Z,100358.56
2022-09-13T22:11:50.432Z,100362.19
2022-09-13T22:14:21.810Z,100360.44
2022-09-13T22:16:52.380Z,100360.59
2022-09-13T22:19:22.250Z,100357.13
2022-09-13T22:21:51.609Z,100361.75
2022-09-13T22:24:21.118Z,100355.69
2022-09-13T22:26:52.329Z,100354.09
2022-09-13T22:29:20.843Z,100364.94
2022-09-13T22:31:50.338Z,100361.63
2022-09-13T22:34:19.765Z,100363.50
2022-09-13T22:36:47.740Z,100356.59
2022-09-13T22:39:17.446Z,100361.13
2022-09-13T22:41:47.693Z,100350.59
2022-09-13T22:44:16.783Z,100347.19
2022-09-13T22:46:45.990Z,100359.75
2022-09-13T22:49:15.602Z,100362.50
2022-09-13T22:51:44.893Z,100360.09
2022-09-13T22:54:13.276Z,100362.94
2022-09-13T22:56:41.119Z,100347.06
2022-09-13T22:59:11.655Z,100344.41
2022-09-13T23:01:40.824Z,100352.53
2022-09-13T23:04:08.811Z,100348.91
2022-09-13T23:06:36.896Z,100345.31
2022-09-13T23:09:08.710Z,100345.47
2022-09-13T23:11:39.076Z,100341.84
2022-09-13T23:14:09.734Z,100338.41
2022-09-13T23:16:42.359Z,100338.41
2022-09-13T23:19:11.183Z,100336.66
2022-09-13T23:21:39.532Z,100333.13
2022-09-13T23:24:11.384Z,100327.88
2022-09-13T23:26:39.684Z,100326.06
2022-09-13T23:29:07.489Z,100334.06
2022-09-13T23:31:38.733Z,100326.13
2022-09-13T23:34:08.935Z,100321.72
2022-09-13T23:36:38.981Z,100316.47
2022-09-13T23:39:08.787Z,100305.88
2022-09-13T23:41:36.958Z,100306.00
2022-09-13T23:44:05.651Z,100300.78
2022-09-13T23:46:33.524Z,100304.44
2022-09-13T23:49:01.294Z,100301.75
2022-09-13T23:51:30.938Z,100297.50
2022-09-13T23:54:00.873Z,100307.38
2022-09-13T23:56:30.764Z,100302.13
2022-09-13T23:59:00.154Z,100298.66
